Time;durP1;ratioP1;P1;durP2;ratioP2;P2;SDS_P1;SDS_P2;PMS_P1;PMS_P2;Temp;Humidity;BMP_temperature;BMP_pressure;BME280_temperature;BME280_humidity;BME280_pressure;Samples;Min_cycle;Max_cycle;Signal;HPM_P1;HPM_P2
2022/02/11 00:07:38;;;;;;;2.85;1.15;;;3.00;99.90;;;;;;4985952;28;20050;-66
2022/02/11 00:10:06;;;;;;;2.22;1.27;;;3.00;99.90;;;;;;4980804;28;20085;-66
2022/02/11 00:12:31;;;;;;;2.25;1.25;;;3.00;99.90;;;;;;4991545;28;20030;-66
2022/02/11 00:17:35;;;;;;;2.03;1.48;;;3.00;99.90;;;;;;4991196;28;20034;-65
2022/02/11 00:20:01;;;;;;;4.15;1.45;;;2.90;99.90;;;;;;4987815;28;20025;-66
2022/02/11 00:22:27;;;;;;;2.63;1.50;;;2.90;99.90;;;;;;4996035;28;20052;-65
2022/02/11 00:24:54;;;;;;;3.20;1.90;;;2.90;99.90;;;;;;4984249;28;20425;-66
2022/02/11 00:32:51;;;;;;;3.10;1.77;;;2.90;99.90;;;;;;4985599;28;20383;-66
2022/02/11 00:37:46;;;;;;;12.98;2.30;;;3.00;99.90;;;;;;4991452;28;20490;-66
2022/02/11 00:40:25;;;;;;;1.40;1.17;;;3.00;99.90;;;;;;4994431;28;20094;-66
2022/02/11 01:04:08;;;;;;;5.40;3.08;;;3.30;99.90;;;;;;4980717;28;20565;-66
2022/02/11 01:06:34;;;;;;;16.88;2.92;;;3.20;99.90;;;;;;4985404;28;20050;-66
2022/02/11 01:09:00;;;;;;;7.90;2.42;;;3.30;99.90;;;;;;4989612;28;20084;-66
2022/02/11 01:11:34;;;;;;;2.90;1.40;;;3.30;99.90;;;;;;4985330;28;20023;-66
2022/02/11 01:14:00;;;;;;;1.52;1.17;;;3.40;99.90;;;;;;4988009;28;20058;-66
2022/02/11 01:16:40;;;;;;;2.15;1.50;;;3.50;99.90;;;;;;4993434;28;20481;-66
2022/02/11 01:19:19;;;;;;;11.20;3.88;;;3.50;99.90;;;;;;4994045;28;20031;-66
2022/02/11 01:32:55;;;;;;;5.13;2.42;;;3.50;99.90;;;;;;4984658;28;20044;-66
2022/02/11 01:56:16;;;;;;;8.20;3.35;;;3.30;99.90;;;;;;4986532;28;20486;-66
2022/02/11 02:12:17;;;;;;;11.38;3.72;;;2.90;99.90;;;;;;4985593;28;20020;-66
2022/02/11 02:25:11;;;;;;;16.25;4.18;;;2.70;99.90;;;;;;4992201;28;20030;-66
2022/02/11 02:28:11;;;;;;;7.28;3.50;;;2.70;99.90;;;;;;4991114;28;20485;-65
2022/02/11 02:36:15;;;;;;;7.95;4.03;;;2.80;99.90;;;;;;4989931;28;20026;-65
2022/02/11 03:16:41;;;;;;;8.05;4.07;;;2.70;99.90;;;;;;4988010;28;20137;-65
2022/02/11 03:35:54;;;;;;;4.78;2.58;;;2.80;99.90;;;;;;4986549;28;20101;-65
2022/02/11 03:48:51;;;;;;;4.90;2.83;;;2.90;99.90;;;;;;4987326;28;20046;-66
2022/02/11 03:49:26;;;;;;;5.90;2.83;;;2.90;99.90;;;;;;4983866;28;20465;-65
2022/02/11 03:55:27;;;;;;;2.70;1.55;;;2.90;99.90;;;;;;4990568;28;20592;-65
2022/02/11 04:22:40;;;;;;;7.00;4.55;;;3.20;99.90;;;;;;4987917;28;20081;-66
2022/02/11 04:55:20;;;;;;;11.70;6.10;;;3.20;99.90;;;;;;4990017;28;20033;-66
2022/02/11 05:00:29;;;;;;;7.57;4.25;;;3.20;99.90;;;;;;4997457;28;20041;-66
2022/02/11 05:02:57;;;;;;;17.35;8.55;;;3.20;99.90;;;;;;4990412;28;20467;-66
2022/02/11 05:05:23;;;;;;;12.98;5.10;;;3.20;99.90;;;;;;4993765;28;20018;-66
2022/02/11 05:07:49;;;;;;;20.45;9.02;;;3.20;99.90;;;;;;4997732;28;20058;-66
2022/02/11 05:10:15;;;;;;;7.53;3.00;;;3.20;99.90;;;;;;4999318;28;20122;-66
2022/02/11 05:12:42;;;;;;;5.55;2.50;;;3.20;99.90;;;;;;5000809;28;20655;-66
2022/02/11 05:15:10;;;;;;;7.60;4.03;;;3.20;99.90;;;;;;5000106;28;20025;-66
2022/02/11 05:17:36;;;;;;;11.02;5.00;;;3.20;99.90;;;;;;5001335;28;20042;-66
2022/02/11 05:20:04;;;;;;;7.50;3.15;;;3.30;99.90;;;;;;5000662;28;20030;-66
2022/02/11 05:22:30;;;;;;;8.18;3.33;;;3.20;99.90;;;;;;5002325;28;20030;-66
2022/02/11 05:24:55;;;;;;;12.82;5.22;;;3.20;99.90;;;;;;5000424;28;20049;-66
2022/02/11 05:27:21;;;;;;;14.43;4.82;;;3.20;99.90;;;;;;5000591;28;20033;-66
2022/02/11 05:29:46;;;;;;;7.10;3.67;;;3.20;99.90;;;;;;5000781;28;20027;-66
2022/02/11 05:32:12;;;;;;;10.82;5.30;;;3.20;99.90;;;;;;5008185;28;20053;-66
2022/02/11 05:34:38;;;;;;;7.45;4.43;;;3.20;99.90;;;;;;4998587;28;20400;-66
2022/02/11 05:37:03;;;;;;;15.68;4.22;;;3.20;99.90;;;;;;4998506;28;20022;-66
2022/02/11 05:39:29;;;;;;;18.02;4.30;;;3.20;99.90;;;;;;4993998;28;20479;-66
2022/02/11 05:41:55;;;;;;;11.50;5.90;;;3.30;99.90;;;;;;5002703;28;20138;-66
2022/02/11 05:44:20;;;;;;;8.70;5.15;;;3.30;99.90;;;;;;4994439;28;20506;-66
2022/02/11 05:46:46;;;;;;;10.48;4.80;;;3.30;99.90;;;;;;4999101;28;20018;-66
2022/02/11 05:49:11;;;;;;;11.02;6.28;;;3.40;99.90;;;;;;4999684;28;20018;-65
2022/02/11 05:51:37;;;;;;;9.80;4.85;;;3.40;99.90;;;;;;4998531;28;20623;-65
2022/02/11 05:54:03;;;;;;;12.70;2.92;;;3.40;99.90;;;;;;5000053;28;20025;-65
2022/02/11 05:56:28;;;;;;;9.43;4.45;;;3.40;99.90;;;;;;5015933;28;20037;-66
2022/02/11 05:58:54;;;;;;;7.22;3.10;;;3.40;99.90;;;;;;4990817;28;20035;-65
2022/02/11 06:01:20;;;;;;;10.98;3.85;;;3.50;99.90;;;;;;4981997;28;20030;-65
2022/02/11 06:03:45;;;;;;;20.35;6.78;;;3.50;99.90;;;;;;4987005;28;20023;-65
2022/02/11 06:06:11;;;;;;;21.83;5.70;;;3.60;99.90;;;;;;4983212;28;20034;-65
2022/02/11 06:08:36;;;;;;;17.83;8.05;;;3.60;99.90;;;;;;4991132;28;20055;-65
2022/02/11 06:11:02;;;;;;;5.63;3.33;;;3.60;99.90;;;;;;4990655;28;20034;-65
2022/02/11 06:13:28;;;;;;;13.60;4.53;;;3.60;99.90;;;;;;4990048;28;20028;-65
2022/02/11 06:15:55;;;;;;;8.50;3.67;;;3.50;99.90;;;;;;4986238;28;20030;-65
2022/02/11 06:18:21;;;;;;;11.20;5.03;;;3.50;99.90;;;;;;4997534;28;20387;-65
2022/02/11 06:20:46;;;;;;;15.07;5.15;;;3.50;99.90;;;;;;4999593;28;20037;-65
2022/02/11 06:23:12;;;;;;;7.43;3.53;;;3.60;99.90;;;;;;4998774;28;20066;-65
2022/02/11 06:25:38;;;;;;;7.18;3.80;;;3.60;99.90;;;;;;4982153;28;20023;-65
2022/02/11 06:28:03;;;;;;;11.50;5.05;;;3.60;99.90;;;;;;4987446;28;20026;-65
2022/02/11 06:30:29;;;;;;;6.60;3.15;;;3.60;99.90;;;;;;5001294;28;20026;-65
2022/02/11 06:32:55;;;;;;;5.60;2.72;;;3.70;99.90;;;;;;5000390;28;20033;-65
2022/02/11 06:35:20;;;;;;;16.42;5.03;;;3.70;99.90;;;;;;4998567;28;20033;-65
2022/02/11 06:37:46;;;;;;;7.72;3.95;;;3.70;99.90;;;;;;4994923;28;20030;-65
2022/02/11 06:40:14;;;;;;;9.50;1.90;;;3.80;99.90;;;;;;4976895;28;20041;-65
2022/02/11 06:42:40;;;;;;;12.65;6.38;;;3.80;99.90;;;;;;4992247;28;20022;-65
2022/02/11 06:45:07;;;;;;;4.18;2.53;;;3.80;99.90;;;;;;4978801;28;20622;-66
2022/02/11 06:47:33;;;;;;;6.47;2.78;;;3.90;99.90;;;;;;4986376;28;20026;-66
2022/02/11 06:49:59;;;;;;;14.70;5.78;;;3.90;99.90;;;;;;4988138;28;20445;-65
2022/02/11 06:52:24;;;;;;;6.60;3.05;;;3.90;99.90;;;;;;4986666;28;20026;-65
2022/02/11 06:54:50;;;;;;;23.27;6.97;;;3.90;99.90;;;;;;4995569;28;20026;-65
2022/02/11 06:57:17;;;;;;;13.25;4.07;;;4.00;99.90;;;;;;5001290;28;20022;-65
2022/02/11 06:59:43;;;;;;;10.48;4.43;;;4.00;99.90;;;;;;4999094;28;20368;-66
2022/02/11 07:02:19;;;;;;;15.60;4.55;;;4.00;99.90;;;;;;4989868;28;20042;-66
2022/02/11 07:04:46;;;;;;;7.15;3.00;;;4.10;99.90;;;;;;4985172;28;20105;-66
2022/02/11 07:07:12;;;;;;;4.30;1.98;;;4.10;99.90;;;;;;4989777;28;20049;-66
2022/02/11 07:09:37;;;;;;;5.68;2.35;;;4.20;99.90;;;;;;4991576;28;20487;-66
2022/02/11 07:12:03;;;;;;;6.40;2.72;;;4.20;99.90;;;;;;4990846;28;20088;-66
2022/02/11 07:14:29;;;;;;;2.53;1.40;;;4.20;99.90;;;;;;4991120;28;20114;-66
2022/02/11 07:16:55;;;;;;;8.30;2.65;;;4.30;99.90;;;;;;4991891;28;20189;-67
2022/02/11 07:19:21;;;;;;;7.25;1.88;;;4.30;99.90;;;;;;4999317;28;20023;-66
2022/02/11 07:21:47;;;;;;;4.97;1.83;;;4.30;99.90;;;;;;5004391;28;20030;-66
2022/02/11 07:24:14;;;;;;;12.88;3.35;;;4.30;99.90;;;;;;4991191;28;20073;-66
2022/02/11 07:26:40;;;;;;;3.30;1.60;;;4.30;99.90;;;;;;4991663;28;20026;-66
2022/02/11 07:29:05;;;;;;;5.45;2.08;;;4.40;99.90;;;;;;4991823;28;20022;-66
2022/02/11 07:31:31;;;;;;;8.30;2.25;;;4.40;99.90;;;;;;4998351;28;20025;-66
2022/02/11 07:33:57;;;;;;;7.50;2.28;;;4.40;99.90;;;;;;4996559;28;20446;-66
2022/02/11 07:36:23;;;;;;;4.43;2.00;;;4.50;99.90;;;;;;4986947;28;20034;-66
2022/02/11 07:38:50;;;;;;;4.20;1.58;;;4.40;99.90;;;;;;5003027;28;20041;-66
2022/02/11 07:41:16;;;;;;;5.05;1.80;;;4.40;99.90;;;;;;4997245;28;20391;-66
2022/02/11 07:43:42;;;;;;;3.00;1.40;;;4.50;99.90;;;;;;4997294;28;20105;-66
2022/02/11 07:46:09;;;;;;;4.93;1.80;;;4.50;99.90;;;;;;5000305;28;20167;-66
2022/02/11 07:48:34;;;;;;;9.10;2.03;;;4.50;99.90;;;;;;5000912;28;20220;-66
2022/02/11 07:51:01;;;;;;;6.43;2.13;;;4.50;99.90;;;;;;5003738;28;20398;-67
2022/02/11 07:53:26;;;;;;;5.43;1.73;;;4.40;99.90;;;;;;4998108;28;20463;-66
2022/02/11 07:55:52;;;;;;;9.25;2.35;;;4.40;99.90;;;;;;5001452;28;20101;-66
2022/02/11 07:58:20;;;;;;;6.45;2.03;;;4.40;99.90;;;;;;4993692;28;20018;-66
2022/02/11 08:00:46;;;;;;;2.15;1.27;;;4.40;99.90;;;;;;4986469;28;20614;-67
2022/02/11 08:03:12;;;;;;;4.38;0.98;;;4.40;99.90;;;;;;5006390;28;20027;-67
2022/02/11 08:05:37;;;;;;;1.45;1.02;;;4.50;99.90;;;;;;4989369;28;20034;-67
2022/02/11 08:08:03;;;;;;;5.03;1.67;;;4.60;99.90;;;;;;4986513;28;20134;-66
2022/02/11 08:10:29;;;;;;;1.55;0.80;;;4.60;99.90;;;;;;4988571;28;20026;-67
2022/02/11 08:12:57;;;;;;;4.13;1.20;;;4.60;99.90;;;;;;5009932;28;20030;-67
2022/02/11 08:15:22;;;;;;;3.30;1.13;;;4.60;99.90;;;;;;4988916;28;20481;-67
2022/02/11 08:17:48;;;;;;;0.60;0.60;;;4.50;99.90;;;;;;5004655;28;20026;-67
2022/02/11 08:20:15;;;;;;;4.72;1.40;;;4.50;99.90;;;;;;4985206;28;20535;-67
2022/02/11 08:22:40;;;;;;;9.38;2.15;;;4.50;99.90;;;;;;4989683;28;20037;-67
2022/02/11 08:25:06;;;;;;;4.97;1.25;;;4.50;99.90;;;;;;4984863;28;20487;-67
2022/02/11 08:27:32;;;;;;;4.95;1.30;;;4.60;99.90;;;;;;4986998;28;20056;-67
2022/02/11 08:29:59;;;;;;;2.78;1.27;;;4.60;99.90;;;;;;4988652;28;20032;-67
2022/02/11 08:32:24;;;;;;;6.63;1.88;;;4.50;99.90;;;;;;4992920;28;20034;-67
2022/02/11 08:34:50;;;;;;;5.15;1.38;;;4.50;99.90;;;;;;4991011;28;20035;-67
2022/02/11 08:37:16;;;;;;;8.02;1.75;;;4.50;99.90;;;;;;4988997;28;20031;-67
2022/02/11 08:39:42;;;;;;;2.75;1.33;;;4.60;99.90;;;;;;4992035;28;20117;-67
2022/02/11 08:42:08;;;;;;;11.50;1.77;;;4.60;99.90;;;;;;4987338;28;20035;-67
2022/02/11 08:44:35;;;;;;;2.55;1.13;;;4.50;99.90;;;;;;4995447;28;20430;-67
2022/02/11 08:47:00;;;;;;;1.35;1.00;;;4.40;99.90;;;;;;4990723;28;20035;-67
2022/02/11 08:49:26;;;;;;;3.95;1.38;;;4.40;99.90;;;;;;4988092;28;20037;-67
2022/02/11 08:51:52;;;;;;;2.60;1.25;;;4.40;99.90;;;;;;4989168;28;20438;-67
2022/02/11 08:54:17;;;;;;;0.75;0.73;;;4.50;99.90;;;;;;4989479;28;20030;-67
2022/02/11 08:56:43;;;;;;;8.77;1.85;;;4.50;99.90;;;;;;4990412;28;20030;-67
2022/02/11 08:59:09;;;;;;;4.07;1.63;;;4.70;99.90;;;;;;4991412;28;20505;-67
2022/02/11 09:01:35;;;;;;;3.10;1.23;;;4.70;99.90;;;;;;4990262;28;20026;-67
2022/02/11 09:04:00;;;;;;;10.27;1.88;;;4.70;99.90;;;;;;4990240;28;20535;-67
2022/02/11 09:06:26;;;;;;;3.50;1.23;;;4.70;99.90;;;;;;4991932;28;20038;-67
2022/02/11 09:08:52;;;;;;;1.77;1.02;;;4.70;99.90;;;;;;4994311;28;20090;-67
2022/02/11 09:11:21;;;;;;;7.20;2.28;;;4.70;99.90;;;;;;4989589;28;20065;-67
2022/02/11 09:13:47;;;;;;;4.45;1.35;;;4.70;99.90;;;;;;4986615;28;20495;-65
2022/02/11 09:16:13;;;;;;;3.67;1.35;;;4.80;99.90;;;;;;4996267;28;20042;-66
2022/02/11 09:18:40;;;;;;;9.63;1.95;;;4.80;99.90;;;;;;4998668;28;20034;-68
2022/02/11 09:21:06;;;;;;;1.48;0.88;;;4.80;99.90;;;;;;5004160;28;20033;-68
2022/02/11 09:23:33;;;;;;;10.02;1.77;;;4.80;99.90;;;;;;4991293;28;20116;-68
2022/02/11 09:25:58;;;;;;;4.90;1.40;;;4.70;99.90;;;;;;5000971;28;20026;-68
2022/02/11 09:28:24;;;;;;;5.13;1.90;;;4.80;99.90;;;;;;4998559;28;20084;-68
2022/02/11 09:30:50;;;;;;;7.20;1.55;;;4.70;99.90;;;;;;4993953;28;20114;-69
2022/02/11 09:33:16;;;;;;;6.05;2.00;;;4.70;99.90;;;;;;4991654;28;20467;-68
2022/02/11 09:35:42;;;;;;;2.08;1.17;;;4.80;99.90;;;;;;5002061;28;20377;-68
2022/02/11 09:38:09;;;;;;;5.70;1.45;;;5.00;99.90;;;;;;4989844;28;20372;-68
2022/02/11 09:40:39;;;;;;;6.32;2.13;;;5.30;99.90;;;;;;4983087;28;20089;-68
2022/02/11 09:43:09;;;;;;;7.90;1.40;;;5.20;99.90;;;;;;4988058;28;20061;-68
2022/02/11 09:45:35;;;;;;;15.98;1.77;;;5.30;99.90;;;;;;4984695;28;20390;-68
2022/02/11 09:48:03;;;;;;;9.73;2.17;;;5.40;99.90;;;;;;4986184;28;20031;-68
2022/02/11 09:50:29;;;;;;;7.40;2.33;;;5.30;99.90;;;;;;4988463;28;20063;-68
2022/02/11 09:52:55;;;;;;;1.13;0.88;;;5.20;99.90;;;;;;4992430;28;20050;-69
2022/02/11 09:55:32;;;;;;;7.25;2.05;;;5.30;99.90;;;;;;4989463;28;20394;-69
2022/02/11 09:58:14;;;;;;;9.93;1.77;;;5.30;99.90;;;;;;4984088;28;20022;-69
2022/02/11 10:00:43;;;;;;;14.80;2.35;;;5.40;99.90;;;;;;4986819;28;20030;-68
2022/02/11 10:03:22;;;;;;;2.92;1.20;;;5.40;99.90;;;;;;4984877;28;20015;-69
2022/02/11 10:06:00;;;;;;;4.57;1.27;;;5.50;99.90;;;;;;4987188;28;20034;-69
2022/02/11 10:08:29;;;;;;;1.50;1.05;;;5.50;99.90;;;;;;4988474;28;20621;-69
2022/02/11 10:10:58;;;;;;;7.85;1.60;;;5.60;99.90;;;;;;4985519;28;20286;-69
2022/02/11 10:13:31;;;;;;;10.40;2.65;;;5.60;99.90;;;;;;4984908;28;20042;-69
2022/02/11 10:15:59;;;;;;;11.38;1.60;;;5.70;99.90;;;;;;4983623;28;20031;-69
2022/02/11 10:18:30;;;;;;;8.13;2.33;;;5.70;99.90;;;;;;5005490;28;20441;-69
2022/02/11 10:21:01;;;;;;;7.82;1.80;;;5.70;99.90;;;;;;4985815;28;20034;-69
2022/02/11 10:23:28;;;;;;;2.72;1.77;;;5.70;99.90;;;;;;4983588;28;20386;-69
2022/02/11 10:26:08;;;;;;;21.75;2.03;;;5.70;99.90;;;;;;4990196;28;20030;-69
2022/02/11 10:28:40;;;;;;;6.22;1.35;;;5.70;99.90;;;;;;4985011;28;20802;-69
2022/02/11 10:31:15;;;;;;;13.90;2.05;;;5.60;99.90;;;;;;4985336;28;20105;-70
2022/02/11 10:33:57;;;;;;;3.42;1.58;;;5.50;99.90;;;;;;4987263;28;20061;-69
2022/02/11 10:36:24;;;;;;;2.67;1.17;;;5.50;99.90;;;;;;4982743;28;20031;-69
2022/02/11 10:39:04;;;;;;;3.53;1.17;;;5.40;99.90;;;;;;4982318;28;20061;-69
2022/02/11 10:41:32;;;;;;;12.13;1.70;;;5.40;99.90;;;;;;4978882;28;20699;-69
2022/02/11 10:43:59;;;;;;;3.85;1.02;;;5.40;99.90;;;;;;4986564;28;20068;-69
2022/02/11 10:46:25;;;;;;;0.85;0.80;;;5.50;99.90;;;;;;4984884;28;20038;-69
2022/02/11 10:48:51;;;;;;;3.65;0.80;;;5.40;99.90;;;;;;4989971;28;20045;-69
2022/02/11 10:51:22;;;;;;;4.93;1.52;;;5.50;99.90;;;;;;4991119;28;20066;-69
2022/02/11 10:53:48;;;;;;;1.88;0.98;;;5.50;99.90;;;;;;4991407;28;20491;-69
2022/02/11 10:56:15;;;;;;;1.55;1.10;;;5.50;99.90;;;;;;4984574;28;20166;-69
2022/02/11 10:58:51;;;;;;;8.00;1.95;;;5.60;99.90;;;;;;4985349;28;20034;-69
2022/02/11 11:01:17;;;;;;;2.97;1.10;;;5.60;99.90;;;;;;5007478;28;20034;-69
2022/02/11 11:03:45;;;;;;;3.75;1.77;;;5.60;99.90;;;;;;4987762;28;20053;-69
2022/02/11 11:06:12;;;;;;;1.90;1.00;;;5.60;99.90;;;;;;4989401;28;20030;-69
2022/02/11 11:08:40;;;;;;;7.78;1.95;;;5.70;99.90;;;;;;4989943;28;20036;-69
2022/02/11 11:11:10;;;;;;;5.57;1.58;;;5.70;99.90;;;;;;4983409;28;20018;-69
2022/02/11 11:13:37;;;;;;;4.43;1.60;;;5.80;99.90;;;;;;4993903;28;20450;-69
2022/02/11 11:16:07;;;;;;;3.13;1.15;;;5.70;99.90;;;;;;4995313;28;20037;-69
2022/02/11 11:18:37;;;;;;;4.15;1.40;;;5.80;99.90;;;;;;4991952;28;20041;-69
2022/02/11 11:21:07;;;;;;;2.63;1.23;;;5.90;99.90;;;;;;4986426;28;20038;-69
2022/02/11 11:23:35;;;;;;;0.75;0.73;;;5.90;99.90;;;;;;4996904;28;20030;-69
2022/02/11 11:26:06;;;;;;;2.92;1.25;;;6.00;99.90;;;;;;4987318;28;20527;-69
2022/02/11 11:28:40;;;;;;;5.15;1.38;;;6.00;99.90;;;;;;4986454;28;20023;-69
2022/02/11 11:31:10;;;;;;;10.35;1.70;;;5.90;99.90;;;;;;4988159;28;20023;-70
2022/02/11 11:33:36;;;;;;;8.55;1.52;;;5.80;99.90;;;;;;4996439;28;20076;-70
2022/02/11 11:36:05;;;;;;;6.60;1.40;;;5.80;99.90;;;;;;4985061;28;20046;-69
2022/02/11 11:38:39;;;;;;;6.38;1.55;;;5.90;99.90;;;;;;4992628;28;20031;-69
2022/02/11 11:41:12;;;;;;;4.03;1.10;;;5.90;99.90;;;;;;4986463;28;20509;-69
2022/02/11 11:43:46;;;;;;;5.28;1.40;;;6.00;99.90;;;;;;4993289;28;20033;-69
2022/02/11 11:46:18;;;;;;;1.15;1.05;;;6.00;99.90;;;;;;4999105;28;20080;-69
2022/02/11 11:49:08;;;;;;;7.45;1.70;;;6.10;99.90;;;;;;4989325;28;20053;-69
2022/02/11 11:51:37;;;;;;;1.27;0.90;;;6.30;99.90;;;;;;4983462;28;20109;-69
2022/02/11 11:54:18;;;;;;;4.22;1.63;;;7.40;99.90;;;;;;4983393;28;20375;-69
2022/02/11 11:56:50;;;;;;;7.35;1.50;;;7.20;99.90;;;;;;4985097;28;20085;-69
2022/02/11 11:59:21;;;;;;;2.63;1.20;;;6.50;99.90;;;;;;4985557;28;20488;-69
2022/02/11 12:02:31;;;;;;;2.72;1.05;;;6.80;99.90;;;;;;4985567;28;20037;-69
2022/02/11 12:04:59;;;;;;;2.22;1.13;;;7.00;99.90;;;;;;4979130;28;20165;-68
2022/02/11 12:07:30;;;;;;;4.35;1.45;;;7.40;99.90;;;;;;5000923;28;20050;-70
2022/02/11 12:09:59;;;;;;;5.78;1.15;;;7.10;99.90;;;;;;4988695;28;20031;-69
2022/02/11 12:12:27;;;;;;;5.30;1.65;;;7.10;99.90;;;;;;4984007;28;20018;-69
2022/02/11 12:15:03;;;;;;;2.85;1.00;;;7.10;99.90;;;;;;4983386;28;20027;-68
2022/02/11 12:17:30;;;;;;;3.22;0.90;;;6.70;99.90;;;;;;4984913;28;20391;-68
2022/02/11 12:19:56;;;;;;;2.92;1.35;;;6.70;99.90;;;;;;4986651;28;20483;-68
2022/02/11 12:22:25;;;;;;;7.28;2.05;;;6.80;99.90;;;;;;4993605;28;20027;-68
2022/02/11 12:27:41;;;;;;;0.85;0.70;;;6.90;99.90;;;;;;4990094;28;20399;-68
2022/02/11 12:30:27;;;;;;;12.05;1.80;;;7.30;99.90;;;;;;4984568;28;20027;-68
2022/02/11 12:32:57;;;;;;;2.97;1.40;;;7.50;99.90;;;;;;4990436;28;20030;-68
2022/02/11 12:35:28;;;;;;;4.53;1.58;;;7.20;99.90;;;;;;4982606;28;20031;-69
2022/02/11 12:37:55;;;;;;;5.20;1.48;;;6.90;99.90;;;;;;4985596;28;20038;-68
2022/02/11 12:40:27;;;;;;;0.98;0.90;;;6.80;99.90;;;;;;4980631;28;20043;-68
2022/02/11 12:42:59;;;;;;;1.38;0.73;;;6.90;99.90;;;;;;4986943;28;20100;-68
2022/02/11 12:45:30;;;;;;;17.38;1.00;;;7.00;99.90;;;;;;4983132;28;20035;-68
2022/02/11 12:47:56;;;;;;;5.47;1.35;;;6.90;99.90;;;;;;4985994;28;20023;-68
2022/02/11 12:50:28;;;;;;;1.95;0.95;;;6.90;99.90;;;;;;4982820;28;20443;-68
2022/02/11 12:52:56;;;;;;;12.15;1.45;;;6.90;99.90;;;;;;4985485;28;20058;-68
2022/02/11 12:55:22;;;;;;;3.67;1.15;;;6.80;99.90;;;;;;4986083;28;20041;-69
2022/02/11 12:57:52;;;;;;;0.70;0.70;;;6.90;99.90;;;;;;4988240;28;20027;-69
2022/02/11 13:00:24;;;;;;;0.98;0.82;;;6.80;99.90;;;;;;4980722;28;20026;-68
2022/02/11 13:02:54;;;;;;;3.28;1.40;;;6.90;99.90;;;;;;4990273;28;20058;-68
2022/02/11 13:05:23;;;;;;;0.60;0.60;;;6.90;99.90;;;;;;4990396;28;20104;-68
2022/02/11 13:07:53;;;;;;;2.95;1.08;;;6.90;99.90;;;;;;4992375;28;20093;-68
2022/02/11 13:10:27;;;;;;;4.97;1.38;;;6.70;99.90;;;;;;4985150;28;20442;-69
2022/02/11 13:12:56;;;;;;;1.90;1.20;;;6.80;99.90;;;;;;4990672;28;20027;-69
2022/02/11 13:15:27;;;;;;;1.92;0.90;;;6.80;99.90;;;;;;4989292;28;20041;-69
2022/02/11 13:18:14;;;;;;;3.70;1.20;;;6.70;99.90;;;;;;4986745;28;20486;-68
2022/02/11 13:20:42;;;;;;;2.35;2.15;;;6.80;99.90;;;;;;4988654;28;20065;-69
2022/02/11 13:23:12;;;;;;;2.50;0.82;;;6.90;99.90;;;;;;4991805;28;20060;-68
2022/02/11 13:25:39;;;;;;;2.30;1.35;;;6.90;99.90;;;;;;4998297;28;20026;-68
2022/02/11 13:28:08;;;;;;;5.38;1.48;;;6.90;99.90;;;;;;4992134;28;20034;-68
2022/02/11 13:30:36;;;;;;;2.33;0.95;;;6.70;99.90;;;;;;4988452;28;20118;-69
2022/02/11 13:33:20;;;;;;;3.00;1.95;;;6.70;99.90;;;;;;4996136;28;20022;-68
2022/02/11 13:35:45;;;;;;;2.05;1.23;;;6.70;99.90;;;;;;4985963;28;20490;-69
2022/02/11 13:38:11;;;;;;;4.00;1.20;;;6.70;99.90;;;;;;5009496;28;20053;-68
2022/02/11 13:40:38;;;;;;;8.38;1.35;;;6.50;99.90;;;;;;4990709;28;20030;-68
2022/02/11 13:43:07;;;;;;;1.33;0.90;;;6.60;99.90;;;;;;4985398;28;20038;-69
2022/02/11 13:45:58;;;;;;;2.08;1.33;;;6.40;99.90;;;;;;4994086;28;20027;-69
2022/02/11 13:48:27;;;;;;;5.15;1.23;;;6.10;99.90;;;;;;4991036;28;20045;-69
2022/02/11 13:51:11;;;;;;;1.90;1.23;;;6.00;99.90;;;;;;4994199;28;20032;-69
2022/02/11 13:53:52;;;;;;;6.68;0.98;;;6.00;99.90;;;;;;4991262;28;20029;-69
2022/02/11 13:56:22;;;;;;;1.23;1.02;;;6.00;99.90;;;;;;4993664;28;20069;-69
2022/02/11 13:59:03;;;;;;;1.90;0.95;;;6.10;99.90;;;;;;4994641;28;20833;-68
2022/02/11 14:01:31;;;;;;;2.25;0.98;;;6.10;99.90;;;;;;4980251;28;20026;-68
2022/02/11 14:04:02;;;;;;;15.98;1.30;;;6.10;99.90;;;;;;4992109;28;20050;-69
2022/02/11 14:06:35;;;;;;;6.30;1.42;;;6.10;99.90;;;;;;4990807;28;20109;-68
2022/02/11 14:09:01;;;;;;;4.25;1.27;;;6.20;99.90;;;;;;4988807;28;20038;-69
2022/02/11 14:11:37;;;;;;;1.42;0.90;;;6.20;99.90;;;;;;4990179;28;20536;-68
2022/02/11 14:14:17;;;;;;;1.25;0.88;;;6.20;99.90;;;;;;4992842;28;20084;-68
2022/02/11 14:16:45;;;;;;;3.92;0.70;;;6.30;99.90;;;;;;4983746;28;20558;-68
2022/02/11 14:19:11;;;;;;;2.05;0.93;;;5.80;99.90;;;;;;5015895;28;20113;-68
2022/02/11 14:21:36;;;;;;;14.05;2.33;;;5.80;99.90;;;;;;4990783;28;20110;-68
2022/02/11 14:24:02;;;;;;;1.73;1.13;;;5.80;99.90;;;;;;4993906;28;20061;-68
2022/02/11 14:26:30;;;;;;;2.22;1.38;;;5.80;99.90;;;;;;4993764;28;20034;-68
2022/02/11 14:28:56;;;;;;;1.20;0.93;;;5.90;99.90;;;;;;4993065;28;20030;-68
2022/02/11 14:31:21;;;;;;;2.88;1.20;;;5.80;99.90;;;;;;4997434;28;20820;-68
2022/02/11 14:33:47;;;;;;;1.38;0.88;;;5.80;99.90;;;;;;4985020;28;20038;-68
2022/02/11 14:36:13;;;;;;;2.45;1.10;;;5.80;99.90;;;;;;4989597;28;20029;-68
2022/02/11 14:38:38;;;;;;;3.10;1.15;;;5.80;99.90;;;;;;4987049;28;20672;-68
2022/02/11 14:41:46;;;;;;;2.60;1.05;;;5.90;99.90;;;;;;4988173;28;20033;-68
2022/02/11 14:43:53;;;;;;;2.42;1.58;;;6.00;99.90;;;;;;4986080;28;20038;-68
2022/02/11 14:46:18;;;;;;;4.25;1.02;;;6.00;99.90;;;;;;4992795;28;20027;-68
2022/02/11 14:48:44;;;;;;;3.70;1.08;;;5.90;99.90;;;;;;5007142;28;20526;-68
2022/02/11 14:51:10;;;;;;;5.68;1.23;;;5.80;99.90;;;;;;4993145;28;20080;-68
2022/02/11 14:53:35;;;;;;;4.22;1.30;;;5.90;99.90;;;;;;4991245;28;20466;-68
2022/02/11 14:56:01;;;;;;;3.05;1.20;;;6.00;99.90;;;;;;4989938;28;20406;-68
2022/02/11 14:58:26;;;;;;;4.20;1.15;;;6.00;99.90;;;;;;4984806;28;20037;-68
2022/02/11 15:00:52;;;;;;;0.75;0.75;;;6.00;99.90;;;;;;4989835;28;20069;-68
2022/02/11 15:03:18;;;;;;;3.03;1.00;;;6.10;99.90;;;;;;4988926;28;20026;-69
2022/02/11 15:05:44;;;;;;;7.20;1.08;;;6.10;99.90;;;;;;4989405;28;20117;-68
2022/02/11 15:08:09;;;;;;;2.47;1.02;;;6.00;99.90;;;;;;4984057;28;20066;-68
2022/02/11 15:10:36;;;;;;;3.90;1.42;;;6.00;99.90;;;;;;4986322;28;20133;-68
2022/02/11 15:13:08;;;;;;;2.47;1.35;;;6.00;99.90;;;;;;4989396;28;20138;-70
2022/02/11 15:15:35;;;;;;;0.73;0.68;;;6.10;99.90;;;;;;4990854;28;20380;-68
2022/02/11 15:18:01;;;;;;;1.95;1.10;;;6.10;99.90;;;;;;4994909;28;20033;-69
2022/02/11 15:20:27;;;;;;;1.40;0.80;;;6.20;99.90;;;;;;4989674;28;20380;-69
2022/02/11 15:22:53;;;;;;;2.88;1.23;;;6.30;99.90;;;;;;4986056;28;20033;-69
2022/02/11 15:25:19;;;;;;;1.17;0.90;;;6.40;99.90;;;;;;4990235;28;20755;-69
2022/02/11 15:27:45;;;;;;;4.38;1.20;;;6.40;99.90;;;;;;4986976;28;20038;-69
2022/02/11 15:30:14;;;;;;;1.17;1.08;;;6.40;99.90;;;;;;4988440;28;20130;-69
2022/02/11 15:32:40;;;;;;;1.75;0.88;;;6.30;99.90;;;;;;4992020;28;20026;-70
2022/02/11 15:35:06;;;;;;;1.13;0.98;;;6.00;99.90;;;;;;4987826;28;20394;-69
2022/02/11 15:37:31;;;;;;;2.30;1.10;;;6.00;99.90;;;;;;4985914;28;20030;-69
2022/02/11 15:39:57;;;;;;;3.28;1.33;;;5.90;99.90;;;;;;4984976;28;20065;-69
2022/02/11 15:42:23;;;;;;;0.65;0.65;;;5.90;99.90;;;;;;4998114;28;20027;-69
2022/02/11 15:44:48;;;;;;;0.82;0.82;;;5.80;99.90;;;;;;4983825;28;20398;-69
2022/02/11 15:47:14;;;;;;;1.42;0.70;;;5.80;99.90;;;;;;4985765;28;20057;-69
2022/02/11 15:49:40;;;;;;;1.38;0.80;;;5.80;99.90;;;;;;4985826;28;20442;-69
2022/02/11 15:52:06;;;;;;;4.32;1.38;;;5.70;99.90;;;;;;4988494;28;20018;-69
2022/02/11 15:54:31;;;;;;;5.10;1.25;;;5.70;99.90;;;;;;4986808;28;20405;-69
2022/02/11 15:56:58;;;;;;;1.38;1.27;;;5.70;99.90;;;;;;4989857;28;20575;-69
2022/02/11 15:59:23;;;;;;;1.85;1.08;;;5.60;99.90;;;;;;4988380;28;20034;-69
2022/02/11 16:01:50;;;;;;;5.25;0.95;;;5.60;99.90;;;;;;4985754;28;20483;-69
2022/02/11 16:04:17;;;;;;;6.60;2.28;;;5.50;99.90;;;;;;5001308;28;20086;-69
2022/02/11 16:06:43;;;;;;;4.90;1.10;;;5.40;99.90;;;;;;4984475;28;20047;-69
2022/02/11 16:09:08;;;;;;;2.08;1.00;;;5.40;99.90;;;;;;4985436;28;20049;-69
2022/02/11 16:11:35;;;;;;;0.70;0.70;;;5.40;99.90;;;;;;4985452;28;20030;-69
2022/02/11 16:14:01;;;;;;;1.77;0.80;;;5.40;99.90;;;;;;4990392;28;20029;-69
2022/02/11 16:16:26;;;;;;;2.13;0.90;;;5.40;99.90;;;;;;4984738;28;20035;-69
2022/02/11 16:18:56;;;;;;;0.68;0.68;;;5.30;99.90;;;;;;4991453;28;20031;-69
2022/02/11 16:21:21;;;;;;;12.68;1.30;;;5.30;99.90;;;;;;4990773;28;20027;-69
2022/02/11 16:23:47;;;;;;;1.70;1.30;;;5.30;99.90;;;;;;4992965;28;20581;-69
2022/02/11 16:26:13;;;;;;;2.92;1.17;;;5.20;99.90;;;;;;4996008;28;20108;-69
2022/02/11 16:28:39;;;;;;;1.50;1.13;;;5.20;99.90;;;;;;4997019;28;20030;-69
2022/02/11 16:31:20;;;;;;;0.95;0.90;;;5.20;99.90;;;;;;5000443;28;20038;-69
2022/02/11 16:33:46;;;;;;;;;;;5.10;99.90;;;;;;4983970;28;20097;-69
2022/02/11 16:36:12;;;;;;;0.68;0.68;;;5.10;99.90;;;;;;4990686;28;19913;-69
2022/02/11 16:38:42;;;;;;;6.93;2.30;;;5.10;99.90;;;;;;4988722;28;20069;-69
2022/02/11 16:41:09;;;;;;;15.45;1.88;;;5.10;99.90;;;;;;4982097;28;20442;-69
2022/02/11 16:43:35;;;;;;;2.28;1.20;;;5.00;99.90;;;;;;4988735;28;20034;-69
2022/02/11 16:46:00;;;;;;;3.35;1.00;;;4.90;99.90;;;;;;4980973;28;20437;-69
2022/02/11 16:48:26;;;;;;;3.40;1.13;;;4.90;99.90;;;;;;4987607;28;20105;-69